createdAt,value
2018-12-07T00:03:45.182Z,96154.4
2018-12-07T00:08:42.430Z,96182.4
2018-12-07T00:13:39.499Z,96175.9
2018-12-07T00:18:36.738Z,95234.7
2018-12-07T00:23:33.876Z,96181.3
2018-12-07T00:28:31.063Z,96172.9
2018-12-07T00:33:27.880Z,96172.3
2018-12-07T00:38:25.129Z,96169.4
2018-12-07T00:43:22.601Z,96166.1
2018-12-07T00:48:19.793Z,96167.4
2018-12-07T00:53:16.938Z,96164.1
2018-12-07T00:58:14.077Z,96169.1
2018-12-07T01:03:11.304Z,96159.3
2018-12-07T01:08:08.550Z,96160.9
2018-12-07T01:13:05.840Z,96163.9
2018-12-07T01:18:03.213Z,96173
2018-12-07T01:23:02.487Z,96172.1
2018-12-07T01:27:59.195Z,96163.4
2018-12-07T01:32:56.391Z,96152.5
2018-12-07T01:37:53.579Z,96157.7
2018-12-07T01:42:50.542Z,96158.6
2018-12-07T01:47:48.289Z,96073.6
2018-12-07T01:52:45.251Z,96162.9
2018-12-07T01:57:42.529Z,96169
2018-12-07T02:02:39.426Z,96178.5
2018-12-07T02:07:36.690Z,96182.8
2018-12-07T02:12:33.547Z,96165.8
2018-12-07T02:17:30.586Z,96160.1
2018-12-07T02:22:27.799Z,96163.4
2018-12-07T02:27:25.389Z,96150.8
2018-12-07T02:32:22.399Z,96150.9
2018-12-07T02:37:19.686Z,96119.1
2018-12-07T02:42:17.239Z,96051.9
2018-12-07T02:47:14.113Z,96142.4
2018-12-07T02:52:11.302Z,96145.3
2018-12-07T02:57:08.536Z,96153.7
2018-12-07T03:02:05.677Z,96164.6
2018-12-07T03:07:02.799Z,96165.4
2018-12-07T03:11:59.768Z,96166.1
2018-12-07T03:16:56.796Z,96166.9
2018-12-07T03:21:53.899Z,96174.1
2018-12-07T03:26:51.189Z,96143.5
2018-12-07T03:31:48.174Z,96174.3
2018-12-07T03:36:45.222Z,96171.9
2018-12-07T03:41:41.879Z,96169.8
2018-12-07T03:46:39.021Z,96174.3
2018-12-07T03:51:36.220Z,96136.8
2018-12-07T03:56:33.425Z,96162.1
2018-12-07T04:01:30.802Z,96170.8
2018-12-07T04:06:28.160Z,96182.3
2018-12-07T04:11:25.377Z,96177.5
2018-12-07T04:16:22.524Z,96186.2
2018-12-07T04:21:19.542Z,96188.8
2018-12-07T04:26:16.985Z,96197.9
2018-12-07T04:31:14.394Z,96177.4
2018-12-07T04:36:11.479Z,96173.6
2018-12-07T04:41:08.580Z,96176.8
2018-12-07T04:46:05.775Z,96169.3
2018-12-07T04:51:03.048Z,96169.7
2018-12-07T04:56:00.406Z,96168.6
2018-12-07T05:00:57.846Z,96173
2018-12-07T05:05:55.093Z,96176.3
2018-12-07T05:10:52.401Z,96177.1
2018-12-07T05:15:49.591Z,96181.6
2018-12-07T05:20:47.456Z,96186.8
2018-12-07T05:25:44.508Z,96188
2018-12-07T05:30:41.131Z,96186.4
2018-12-07T05:35:38.203Z,96191
2018-12-07T05:40:35.382Z,96192.2
2018-12-07T05:45:33.177Z,96105.7
2018-12-07T05:50:30.044Z,96195.1
2018-12-07T05:55:27.525Z,96200.1
2018-12-07T06:00:24.685Z,96195.7
2018-12-07T06:05:21.812Z,96203.7
2018-12-07T06:10:19.028Z,96216.5
2018-12-07T06:15:15.951Z,96210.1
2018-12-07T06:20:12.787Z,96225
2018-12-07T06:25:10.123Z,96221.8
2018-12-07T06:30:07.275Z,96219.8
2018-12-07T06:35:04.339Z,96220.4
2018-12-07T06:40:01.370Z,96216.6
2018-12-07T06:44:58.245Z,96198.6
2018-12-07T06:49:54.815Z,96205.1
2018-12-07T06:54:52.360Z,96224.1
2018-12-07T06:59:49.821Z,96224.2
2018-12-07T07:04:47.125Z,96230
2018-12-07T07:09:43.712Z,96232.1
2018-12-07T07:14:40.846Z,96234.5
2018-12-07T07:19:38.141Z,96096.7
2018-12-07T07:24:35.230Z,96248.1
2018-12-07T07:29:32.479Z,96239.7
2018-12-07T07:34:28.957Z,96234.6
2018-12-07T07:39:26.396Z,96216.7
2018-12-07T07:44:23.553Z,96219.8
2018-12-07T07:49:20.891Z,96208.8
2018-12-07T07:54:18.238Z,96190.9
2018-12-07T07:59:15.486Z,96188.3
2018-12-07T08:04:12.674Z,96197.8
2018-12-07T08:09:09.526Z,96123.3
2018-12-07T08:14:06.561Z,96157.8
2018-12-07T08:19:03.436Z,96146.8
2018-12-07T08:24:00.516Z,96145.8
2018-12-07T08:28:57.741Z,96146.5
2018-12-07T08:33:54.692Z,96155.1
2018-12-07T08:38:51.876Z,96150.4
2018-12-07T08:43:49.174Z,96148.7
2018-12-07T08:48:46.398Z,96144.2
2018-12-07T08:53:43.830Z,96138.8
2018-12-07T08:58:41.074Z,96105.3
2018-12-07T09:03:38.278Z,96130.9
2018-12-07T09:08:35.256Z,96122.1
2018-12-07T09:13:32.440Z,96115.9
2018-12-07T09:18:29.099Z,96106.1
2018-12-07T09:23:26.436Z,96090.1
2018-12-07T09:28:24.040Z,95987.2
2018-12-07T09:33:21.007Z,96079.7
2018-12-07T09:38:18.181Z,96069.8
2018-12-07T09:43:15.279Z,96061.4
2018-12-07T09:48:12.539Z,96052.1
2018-12-07T09:53:10.207Z,96033
2018-12-07T09:58:07.499Z,96025.1
2018-12-07T10:03:04.783Z,96016
2018-12-07T10:08:02.143Z,96007.6
2018-12-07T10:13:07.664Z,96008.7
2018-12-07T10:17:57.331Z,95994.9
2018-12-07T10:22:54.812Z,95480
2018-12-07T10:27:52.052Z,95978.6
2018-12-07T10:32:49.418Z,95984.4
2018-12-07T10:37:47.134Z,95981.8
2018-12-07T10:42:44.357Z,95980.8
2018-12-07T10:47:41.445Z,95979.9
2018-12-07T10:52:39.091Z,95983.6
2018-12-07T10:57:36.307Z,95973.6
2018-12-07T11:02:33.753Z,95921.1
2018-12-07T11:07:30.927Z,95953.4
2018-12-07T11:12:28.247Z,95950.4
2018-12-07T11:17:25.735Z,95937.9
2018-12-07T11:22:23.119Z,95918.7
2018-12-07T11:27:19.955Z,95902.7
2018-12-07T11:32:17.584Z,95882.3
2018-12-07T11:37:15.326Z,95862.3
2018-12-07T11:42:12.267Z,95866.5
2018-12-07T11:47:09.883Z,95773.3
2018-12-07T11:52:07.188Z,95864.6
2018-12-07T11:57:04.626Z,95857.2
2018-12-07T12:02:01.901Z,95859.7
2018-12-07T12:06:59.059Z,95871
2018-12-07T12:11:56.288Z,95878
2018-12-07T12:16:53.422Z,95865.6
2018-12-07T12:21:50.878Z,95844.5
2018-12-07T12:26:48.156Z,95843.3
2018-12-07T12:31:45.287Z,95838.7
2018-12-07T12:36:42.545Z,95831.8
2018-12-07T12:41:46.535Z,95826.2
2018-12-07T12:46:37.333Z,95826.6
2018-12-07T12:51:34.530Z,95827
2018-12-07T12:56:31.803Z,95826.8
2018-12-07T13:01:28.701Z,95839.6
2018-12-07T13:06:25.982Z,95661
2018-12-07T13:11:23.181Z,95840.1
2018-12-07T13:16:20.626Z,95839.8
2018-12-07T13:21:18.256Z,95839.5
2018-12-07T13:26:15.891Z,95841.1
2018-12-07T13:31:13.196Z,95834.5
2018-12-07T13:36:10.392Z,95777.5
2018-12-07T13:41:07.816Z,95841.6
2018-12-07T13:46:05.130Z,95839.4
2018-12-07T13:51:02.320Z,95834.6
2018-12-07T13:55:59.485Z,95824.3
2018-12-07T14:00:56.622Z,95825
2018-12-07T14:05:53.829Z,95815.9
2018-12-07T14:10:50.750Z,95813.4
2018-12-07T14:15:47.779Z,95890.9
2018-12-07T14:20:44.725Z,95795.7
2018-12-07T14:25:42.166Z,95792.7
2018-12-07T14:30:39.592Z,95790.5
2018-12-07T14:35:36.990Z,95760.4
2018-12-07T14:40:33.966Z,95783.7
2018-12-07T14:45:31.132Z,95774.3
2018-12-07T14:50:28.327Z,95782.3
2018-12-07T14:55:25.686Z,95777.3
2018-12-07T15:00:22.844Z,95772.1
2018-12-07T15:05:19.726Z,95761.5
2018-12-07T15:10:17.070Z,95748.9
2018-12-07T15:15:14.197Z,95759.7
2018-12-07T15:20:11.348Z,95763.1
2018-12-07T15:25:08.623Z,95761.4
2018-12-07T15:30:05.550Z,95756.7
2018-12-07T15:35:02.953Z,95769.5
2018-12-07T15:39:59.915Z,95784.5
2018-12-07T15:44:57.122Z,95797.9
2018-12-07T15:49:54.285Z,95795.3
2018-12-07T15:54:51.023Z,95797.8
2018-12-07T15:59:48.423Z,95799.5
2018-12-07T16:04:45.699Z,95805
2018-12-07T16:09:42.906Z,95802.5
2018-12-07T16:14:40.433Z,95804.1
2018-12-07T16:19:37.446Z,95813.1
2018-12-07T16:24:34.653Z,95808
2018-12-07T16:29:32.117Z,95807.1
2018-12-07T16:34:29.076Z,95792.6
2018-12-07T16:39:26.402Z,95792.6
2018-12-07T16:44:23.447Z,95781.9
2018-12-07T16:49:20.755Z,95775.1
2018-12-07T16:54:17.915Z,95767
2018-12-07T16:59:15.194Z,95768.2
2018-12-07T17:04:12.086Z,95770.4
2018-12-07T17:09:09.043Z,95770.5
2018-12-07T17:14:06.371Z,95775.2
2018-12-07T17:19:03.316Z,95775.5
2018-12-07T17:23:59.982Z,95782.8
2018-12-07T17:28:57.715Z,95767.5
2018-12-07T17:33:54.758Z,95776.6
2018-12-07T17:38:51.861Z,95766.7
2018-12-07T17:43:49.248Z,95774.7
2018-12-07T17:48:46.461Z,95743.5
2018-12-07T17:53:43.840Z,95767.7
2018-12-07T17:58:40.741Z,95758.8
2018-12-07T18:03:38.245Z,95746.3
2018-12-07T18:08:35.291Z,95742.2
2018-12-07T18:13:32.809Z,95734.7
2018-12-07T18:18:29.601Z,95739.3
2018-12-07T18:23:27.157Z,95727.6
2018-12-07T18:28:24.533Z,95731.5
2018-12-07T18:33:21.468Z,95731.8
2018-12-07T18:38:18.561Z,95726
2018-12-07T18:43:15.850Z,95723.8
2018-12-07T18:48:12.552Z,95721.9
2018-12-07T18:53:09.574Z,95720.9
2018-12-07T18:58:06.817Z,95718.3
2018-12-07T19:03:04.165Z,95722.4
2018-12-07T19:08:01.352Z,95714.5
2018-12-07T19:13:00.460Z,95679.6
2018-12-07T19:17:56.375Z,95715.1
2018-12-07T19:22:53.547Z,95713.3
2018-12-07T19:27:50.719Z,95714.4
2018-12-07T19:32:48.056Z,95694.2
2018-12-07T19:37:45.492Z,95698.3
2018-12-07T19:42:42.729Z,95695.2
2018-12-07T19:47:39.846Z,95704.5
2018-12-07T19:52:36.947Z,95639.5
2018-12-07T19:57:34.290Z,95699.2
2018-12-07T20:02:31.705Z,95720.1
2018-12-07T20:07:29.130Z,95678.3
2018-12-07T20:12:26.378Z,95677.4
2018-12-07T20:17:23.462Z,95676.2
2018-12-07T20:22:20.783Z,95672.6
2018-12-07T20:27:18.785Z,95668.9
2018-12-07T20:32:15.440Z,95626.4
2018-12-07T20:37:12.911Z,95657.7
2018-12-07T20:42:09.643Z,95648.6
2018-12-07T20:47:06.603Z,95616.9
2018-12-07T20:52:03.804Z,95647.5
2018-12-07T20:57:01.281Z,95647.9
2018-12-07T21:01:58.289Z,95556.8
2018-12-07T21:06:55.275Z,95639
2018-12-07T21:11:52.693Z,95636.6
2018-12-07T21:16:49.750Z,95631.9
2018-12-07T21:21:47.156Z,95638.8
2018-12-07T21:26:44.197Z,95635.9
2018-12-07T21:31:41.577Z,95641.9
2018-12-07T21:36:38.871Z,95634.8
2018-12-07T21:41:35.792Z,95632.3
2018-12-07T21:46:33.055Z,95631.7
2018-12-07T21:51:30.494Z,95628.8
2018-12-07T21:56:28.200Z,95617.6
2018-12-07T22:01:25.021Z,95607.6
2018-12-07T22:06:22.300Z,95605.8
2018-12-07T22:11:19.127Z,95599
2018-12-07T22:16:16.164Z,95585.7
2018-12-07T22:21:13.164Z,95491.2
2018-12-07T22:26:10.160Z,95581
2018-12-07T22:31:07.251Z,95542.3
2018-12-07T22:36:04.602Z,95566.5
2018-12-07T22:41:02.441Z,95563.3
2018-12-07T22:45:59.292Z,95558
2018-12-07T22:50:56.500Z,95545.8
2018-12-07T22:55:54.032Z,95543.3
2018-12-07T23:00:51.182Z,95542.6
2018-12-07T23:05:48.566Z,95533.5
2018-12-07T23:10:45.669Z,95527.8
2018-12-07T23:15:43.072Z,95520.6
2018-12-07T23:20:40.383Z,95519.5
2018-12-07T23:25:37.578Z,95518.7
2018-12-07T23:30:34.750Z,95516.2
2018-12-07T23:35:31.968Z,95519.5
2018-12-07T23:40:29.228Z,95507.5
2018-12-07T23:45:27.053Z,95506.2
2018-12-07T23:50:24.251Z,95497.2
2018-12-07T23:55:21.798Z,95498
